Terminal Aerodrome Forecast
Issued by NWS Jackson, KY

Home | Current Version | Previous Version | Text Only | Print | Product List | Glossary On
Versions: 1 2 3 4 5 6 7 8 9 10 11 12 13 14 15 16 17 18 19 20 21 22
000
FTUS43 KJKL 151100
TAFJKL
TAF
KJKL 151137Z 1512/1612 00000KT 6SM BR FEW015
     FM151400 25004KT P6SM FEW040 SCT100 BKN250
     FM160600 29004KT P6SM SCT025 OVC050
     FM161000 32004KT P6SM OVC025=

USA.gov is the U.S. government's official web portal to all federal, state and local government web resources and services.